createdAt,value
2023-03-12T00:00:11.052Z,0.00
2023-03-12T00:01:11.073Z,0.00
2023-03-12T00:02:11.029Z,0.00
2023-03-12T00:03:11.090Z,0.00
2023-03-12T00:04:11.104Z,0.00
2023-03-12T00:05:10.964Z,0.00
2023-03-12T00:06:11.284Z,0.00
2023-03-12T00:07:10.969Z,0.00
2023-03-12T00:08:10.954Z,0.00
2023-03-12T00:09:10.938Z,0.00
2023-03-12T00:10:10.937Z,0.00
2023-03-12T00:11:10.927Z,0.00
2023-03-12T00:12:10.925Z,0.00
2023-03-12T00:13:10.906Z,0.00
2023-03-12T00:14:10.843Z,1.00
2023-03-12T00:15:10.886Z,0.00
2023-03-12T00:16:10.929Z,0.00
2023-03-12T00:17:10.881Z,0.00
2023-03-12T00:18:10.845Z,0.00
2023-03-12T00:19:10.810Z,0.00
2023-03-12T00:20:10.817Z,0.00
2023-03-12T00:21:10.824Z,0.00
2023-03-12T00:22:10.797Z,0.00
2023-03-12T00:23:10.785Z,0.00
2023-03-12T00:24:10.784Z,0.00
2023-03-12T00:25:10.822Z,0.00
2023-03-12T00:26:10.854Z,0.00
2023-03-12T00:27:10.757Z,0.00
2023-03-12T00:28:10.752Z,0.00
2023-03-12T00:29:10.787Z,0.00
2023-03-12T00:30:10.755Z,0.00
2023-03-12T00:31:10.783Z,0.00
2023-03-12T00:32:10.698Z,0.00
2023-03-12T00:33:10.741Z,0.00
2023-03-12T00:34:10.707Z,0.00
2023-03-12T00:35:10.788Z,0.00
2023-03-12T00:36:10.732Z,0.00
2023-03-12T00:37:10.636Z,0.00
2023-03-12T00:38:10.638Z,0.00
2023-03-12T00:39:10.618Z,0.00
2023-03-12T00:40:10.711Z,0.00
2023-03-12T00:41:10.853Z,0.00
2023-03-12T00:42:10.597Z,0.00
2023-03-12T00:43:10.614Z,0.00
2023-03-12T00:44:10.651Z,0.00
2023-03-12T00:45:10.578Z,0.00
2023-03-12T00:46:10.671Z,0.00
2023-03-12T00:47:10.622Z,0.00
2023-03-12T00:48:10.527Z,0.00
2023-03-12T00:49:10.542Z,0.00
2023-03-12T00:50:10.517Z,0.00
2023-03-12T00:51:10.506Z,0.00
2023-03-12T00:52:10.527Z,0.00
2023-03-12T00:53:10.470Z,0.00
2023-03-12T00:54:10.499Z,0.00
2023-03-12T00:55:10.493Z,0.00
2023-03-12T00:56:10.467Z,0.00
2023-03-12T00:57:10.530Z,0.00
2023-03-12T00:58:10.425Z,0.00
2023-03-12T00:59:10.461Z,0.00
2023-03-12T01:00:10.401Z,0.00
2023-03-12T01:01:10.522Z,0.00
2023-03-12T01:02:10.396Z,0.00
2023-03-12T01:03:10.394Z,0.00
2023-03-12T01:04:10.496Z,0.00
2023-03-12T01:05:10.367Z,0.00
2023-03-12T01:06:10.398Z,0.00
2023-03-12T01:07:10.363Z,0.00
2023-03-12T01:08:10.370Z,0.00
2023-03-12T01:09:10.334Z,0.00
2023-03-12T01:10:10.324Z,0.00
2023-03-12T01:11:10.328Z,0.00
2023-03-12T01:12:10.342Z,0.00
2023-03-12T01:13:10.298Z,0.00
2023-03-12T01:14:10.300Z,0.00
2023-03-12T01:15:10.263Z,0.00
2023-03-12T01:16:10.349Z,0.00
2023-03-12T01:17:10.229Z,0.00
2023-03-12T01:18:10.307Z,0.00
2023-03-12T01:19:10.226Z,0.00
2023-03-12T01:20:10.208Z,0.00
2023-03-12T01:21:10.190Z,0.00
2023-03-12T01:22:10.209Z,0.00
2023-03-12T01:23:10.230Z,0.00
2023-03-12T01:24:10.214Z,0.00
2023-03-12T01:25:10.184Z,0.00
2023-03-12T01:26:10.174Z,0.00
2023-03-12T01:27:10.161Z,0.00
2023-03-12T01:28:10.357Z,0.00
2023-03-12T01:29:10.168Z,0.00
2023-03-12T01:30:10.124Z,0.00
2023-03-12T01:31:10.206Z,0.00
2023-03-12T01:32:10.104Z,0.00
2023-03-12T01:33:10.123Z,0.00
2023-03-12T01:34:10.122Z,0.00
2023-03-12T01:35:10.179Z,0.00
2023-03-12T01:36:10.176Z,0.00
2023-03-12T01:37:10.074Z,0.00
2023-03-12T01:38:10.043Z,0.00
2023-03-12T01:39:10.018Z,0.00
2023-03-12T01:40:10.012Z,0.00
2023-03-12T01:41:10.037Z,0.00
2023-03-12T01:42:10.026Z,0.00
2023-03-12T01:43:10.018Z,0.00
2023-03-12T01:44:09.991Z,0.00
2023-03-12T01:45:09.982Z,0.00
2023-03-12T01:46:10.021Z,0.00
2023-03-12T01:47:09.964Z,0.00
2023-03-12T01:48:09.983Z,0.00
2023-03-12T01:49:09.940Z,0.00
2023-03-12T01:50:09.931Z,0.00
2023-03-12T01:51:09.916Z,0.00
2023-03-12T01:52:09.919Z,0.00
2023-03-12T01:53:09.904Z,0.00
2023-03-12T01:54:09.865Z,0.00
2023-03-12T01:55:09.889Z,0.00
2023-03-12T01:56:09.880Z,0.00
2023-03-12T01:57:09.839Z,0.00
2023-03-12T01:58:09.870Z,0.00
2023-03-12T01:59:09.845Z,0.00
2023-03-12T02:00:09.855Z,0.00
2023-03-12T02:01:09.927Z,0.00
2023-03-12T02:02:09.834Z,0.00
2023-03-12T02:03:09.798Z,0.00
2023-03-12T02:04:09.815Z,0.00
2023-03-12T02:05:09.800Z,0.00
2023-03-12T02:06:09.782Z,0.00
2023-03-12T02:07:09.767Z,0.00
2023-03-12T02:08:09.753Z,0.00
2023-03-12T02:09:09.708Z,0.00
2023-03-12T02:10:09.736Z,0.00
2023-03-12T02:11:09.693Z,0.00
2023-03-12T02:12:09.704Z,0.00
2023-03-12T02:13:09.675Z,0.00
2023-03-12T02:14:09.946Z,0.00
2023-03-12T02:15:09.684Z,0.00
2023-03-12T02:16:09.718Z,0.00
2023-03-12T02:17:09.658Z,0.00
2023-03-12T02:18:09.636Z,0.00
2023-03-12T02:19:09.670Z,0.00
2023-03-12T02:20:09.607Z,0.00
2023-03-12T02:21:09.591Z,0.00
2023-03-12T02:22:09.594Z,1.00
2023-03-12T02:23:09.586Z,0.00
2023-03-12T02:24:09.592Z,0.00
2023-03-12T02:25:09.614Z,0.00
2023-03-12T02:26:09.568Z,0.00
2023-03-12T02:27:09.574Z,0.00
2023-03-12T02:28:09.563Z,0.00
2023-03-12T02:29:09.519Z,0.00
2023-03-12T02:30:09.514Z,0.00
2023-03-12T02:31:09.496Z,0.00
2023-03-12T02:32:09.552Z,0.00
2023-03-12T02:33:09.489Z,0.00
2023-03-12T02:34:09.476Z,0.00
2023-03-12T02:35:09.498Z,0.00
2023-03-12T02:36:09.577Z,0.00
2023-03-12T02:37:09.444Z,0.00
2023-03-12T02:38:09.469Z,0.00
2023-03-12T02:39:09.422Z,0.00
2023-03-12T02:40:09.519Z,0.00
2023-03-12T02:41:09.440Z,0.00
2023-03-12T02:42:09.403Z,0.00
2023-03-12T02:43:09.383Z,0.00
2023-03-12T02:44:09.414Z,0.00
2023-03-12T02:45:09.373Z,0.00
2023-03-12T02:46:09.454Z,0.00
2023-03-12T02:47:09.366Z,0.00
2023-03-12T02:48:09.360Z,0.00
2023-03-12T02:49:09.355Z,0.00
2023-03-12T02:50:09.343Z,0.00
2023-03-12T02:51:09.311Z,0.00
2023-03-12T02:52:09.301Z,0.00
2023-03-12T02:53:09.313Z,0.00
2023-03-12T02:54:09.317Z,0.00
2023-03-12T02:55:09.267Z,0.00
2023-03-12T02:56:09.302Z,0.00
2023-03-12T02:57:09.289Z,0.00
2023-03-12T02:58:09.278Z,0.00
2023-03-12T02:59:09.216Z,0.00
2023-03-12T03:00:09.841Z,0.00
2023-03-12T03:01:09.249Z,0.00
2023-03-12T03:02:09.200Z,0.00
2023-03-12T03:03:09.224Z,0.00
2023-03-12T03:04:09.190Z,0.00
2023-03-12T03:05:09.214Z,0.00
2023-03-12T03:06:09.156Z,0.00
2023-03-12T03:07:09.163Z,0.00
2023-03-12T03:08:09.207Z,0.00
2023-03-12T03:09:09.135Z,0.00
2023-03-12T03:10:09.148Z,0.00
2023-03-12T03:11:09.185Z,0.00
2023-03-12T03:12:09.095Z,0.00
2023-03-12T03:13:09.076Z,0.00
2023-03-12T03:14:09.105Z,0.00
2023-03-12T03:15:09.098Z,0.00
2023-03-12T03:16:09.190Z,0.00
2023-03-12T03:17:09.083Z,0.00
2023-03-12T03:18:09.071Z,0.00
2023-03-12T03:19:09.085Z,0.00
2023-03-12T03:20:09.056Z,0.00
2023-03-12T03:21:09.033Z,0.00
2023-03-12T03:22:09.023Z,0.00
2023-03-12T03:23:09.001Z,0.00
2023-03-12T03:24:09.014Z,0.00
2023-03-12T03:25:09.015Z,0.00
2023-03-12T03:26:08.995Z,0.00
2023-03-12T03:27:08.963Z,0.00
2023-03-12T03:28:08.955Z,0.00
2023-03-12T03:29:08.968Z,0.00
2023-03-12T03:30:08.953Z,0.00
2023-03-12T03:31:08.958Z,0.00
2023-03-12T03:32:08.947Z,0.00
2023-03-12T03:33:08.923Z,0.00
2023-03-12T03:34:08.898Z,0.00
2023-03-12T03:35:08.905Z,0.00
2023-03-12T03:36:08.888Z,0.00
2023-03-12T03:37:08.894Z,0.00
2023-03-12T03:38:08.921Z,0.00
2023-03-12T03:39:08.873Z,0.00
2023-03-12T03:40:08.862Z,0.00
2023-03-12T03:41:08.854Z,0.00
2023-03-12T03:42:08.824Z,0.00
2023-03-12T03:43:08.803Z,0.00
2023-03-12T03:44:08.790Z,0.00
2023-03-12T03:45:08.800Z,0.00
2023-03-12T03:46:08.787Z,0.00
2023-03-12T03:47:08.784Z,0.00
2023-03-12T03:48:08.815Z,0.00
2023-03-12T03:49:08.727Z,0.00
2023-03-12T03:50:08.732Z,0.00
2023-03-12T03:51:08.749Z,0.00
2023-03-12T03:52:08.703Z,0.00
2023-03-12T03:53:08.717Z,0.00
2023-03-12T03:54:08.715Z,0.00
2023-03-12T03:55:08.702Z,0.00
2023-03-12T03:56:08.670Z,0.00
2023-03-12T03:57:08.649Z,0.00
2023-03-12T03:58:08.636Z,0.00
2023-03-12T03:59:08.669Z,0.00
2023-03-12T04:00:08.644Z,0.00
2023-03-12T04:01:08.640Z,0.00
2023-03-12T04:02:08.593Z,0.00
2023-03-12T04:03:08.643Z,0.00
2023-03-12T04:04:08.685Z,0.00
2023-03-12T04:05:08.582Z,0.00
2023-03-12T04:06:08.573Z,0.00
2023-03-12T04:07:08.575Z,0.00
2023-03-12T04:08:08.606Z,0.00
2023-03-12T04:09:08.584Z,0.00
2023-03-12T04:10:08.519Z,0.00
2023-03-12T04:11:08.557Z,0.00
2023-03-12T04:12:08.542Z,0.00
2023-03-12T04:13:08.506Z,0.00
2023-03-12T04:14:08.483Z,0.00
2023-03-12T04:15:08.487Z,0.00
2023-03-12T04:16:08.523Z,0.00
2023-03-12T04:17:08.485Z,0.00
2023-03-12T04:18:08.504Z,0.00
2023-03-12T04:19:08.516Z,0.00
2023-03-12T04:20:08.426Z,0.00
2023-03-12T04:21:08.463Z,0.00
2023-03-12T04:22:08.429Z,0.00
2023-03-12T04:23:08.466Z,0.00
2023-03-12T04:24:08.403Z,0.00
2023-03-12T04:25:08.391Z,0.00
2023-03-12T04:26:08.384Z,0.00
2023-03-12T04:27:08.405Z,0.00
2023-03-12T04:28:08.441Z,0.00
2023-03-12T04:29:08.417Z,0.00
2023-03-12T04:30:08.328Z,0.00
2023-03-12T04:31:08.462Z,0.00
2023-03-12T04:32:08.326Z,0.00
2023-03-12T04:33:08.411Z,0.00
2023-03-12T04:34:08.348Z,0.00
2023-03-12T04:35:08.322Z,0.00
2023-03-12T04:36:08.398Z,0.00
2023-03-12T04:37:08.286Z,0.00
2023-03-12T04:38:08.279Z,0.00
2023-03-12T04:39:08.277Z,0.00
2023-03-12T04:40:08.231Z,0.00
2023-03-12T04:41:08.240Z,0.00
2023-03-12T04:42:08.201Z,0.00
2023-03-12T04:43:08.225Z,0.00
2023-03-12T04:44:09.128Z,1.00
2023-03-12T04:45:08.219Z,0.00
2023-03-12T04:46:08.313Z,0.00
2023-03-12T04:47:08.181Z,0.00
2023-03-12T04:48:08.185Z,0.00
2023-03-12T04:49:08.148Z,0.00
2023-03-12T04:50:08.167Z,0.00
2023-03-12T04:51:08.129Z,0.00
2023-03-12T04:52:08.112Z,0.00
2023-03-12T04:53:08.200Z,0.00
2023-03-12T04:54:08.115Z,0.00
2023-03-12T04:55:08.106Z,0.00
2023-03-12T04:56:08.089Z,0.00
2023-03-12T04:57:08.079Z,0.00
2023-03-12T04:58:08.088Z,0.00
2023-03-12T04:59:08.052Z,0.00
2023-03-12T05:00:08.020Z,0.00
2023-03-12T05:01:08.034Z,0.00
2023-03-12T05:02:08.034Z,0.00
2023-03-12T05:03:08.128Z,0.00
2023-03-12T05:04:08.115Z,0.00
2023-03-12T05:05:08.040Z,0.00
2023-03-12T05:06:08.013Z,0.00
2023-03-12T05:07:08.007Z,0.00
2023-03-12T05:08:07.975Z,0.00
2023-03-12T05:09:07.982Z,0.00
2023-03-12T05:10:07.944Z,0.00
2023-03-12T05:11:07.968Z,0.00
2023-03-12T05:12:07.954Z,0.00
2023-03-12T05:13:07.945Z,0.00
2023-03-12T05:14:07.906Z,0.00
2023-03-12T05:15:07.912Z,0.00
2023-03-12T05:16:07.882Z,0.00
2023-03-12T05:17:07.814Z,1.00
2023-03-12T05:18:07.922Z,0.00
2023-03-12T05:19:07.892Z,0.00
2023-03-12T05:20:07.900Z,0.00
2023-03-12T05:21:07.845Z,0.00
2023-03-12T05:22:07.848Z,0.00
2023-03-12T05:23:07.860Z,0.00
2023-03-12T05:24:08.430Z,0.00
2023-03-12T05:25:07.754Z,1.00
2023-03-12T05:26:07.736Z,1.00
2023-03-12T05:27:07.727Z,1.00
2023-03-12T05:28:07.758Z,1.00
2023-03-12T05:29:07.799Z,2.00
2023-03-12T05:30:07.749Z,2.00
2023-03-12T05:31:07.737Z,2.00
2023-03-12T05:32:07.695Z,3.00
2023-03-12T05:33:07.680Z,2.00
2023-03-12T05:34:07.697Z,2.00
2023-03-12T05:35:07.663Z,3.00
2023-03-12T05:36:07.725Z,3.00
2023-03-12T05:37:07.707Z,6.00
2023-03-12T05:38:07.606Z,10.00
2023-03-12T05:39:07.640Z,7.00
2023-03-12T05:40:07.637Z,8.00
2023-03-12T05:41:07.596Z,7.00
2023-03-12T05:42:07.606Z,8.00
2023-03-12T05:43:07.571Z,7.00
2023-03-12T05:44:07.594Z,13.00
2023-03-12T05:45:07.542Z,18.00
2023-03-12T05:46:07.590Z,16.00
2023-03-12T05:47:07.565Z,19.00
2023-03-12T05:48:07.564Z,23.00
2023-03-12T05:49:08.392Z,28.00
2023-03-12T05:50:07.525Z,25.00
2023-03-12T05:51:07.498Z,29.00
2023-03-12T05:52:07.545Z,37.00
2023-03-12T05:53:07.515Z,37.00
2023-03-12T05:54:08.909Z,41.00
2023-03-12T05:55:07.476Z,44.00
2023-03-12T05:56:07.478Z,46.00
2023-03-12T05:57:07.419Z,48.00
2023-03-12T05:58:07.437Z,50.00
2023-03-12T05:59:07.394Z,53.00
2023-03-12T06:00:07.391Z,52.00
2023-03-12T06:01:07.366Z,53.00
2023-03-12T06:02:07.431Z,52.00
2023-03-12T06:03:07.371Z,54.00
2023-03-12T06:04:07.382Z,54.00
2023-03-12T06:05:07.331Z,55.00
2023-03-12T06:06:07.334Z,61.00
2023-03-12T06:07:07.333Z,56.00
2023-03-12T06:08:07.312Z,58.00
2023-03-12T06:09:07.297Z,62.00
2023-03-12T06:10:07.270Z,60.00
2023-03-12T06:11:07.263Z,63.00
2023-03-12T06:12:07.376Z,67.00
2023-03-12T06:13:07.339Z,65.00
2023-03-12T06:14:07.251Z,67.00
2023-03-12T06:15:07.334Z,69.00
2023-03-12T06:16:07.240Z,70.00
2023-03-12T06:17:07.248Z,73.00
2023-03-12T06:18:07.238Z,79.00
2023-03-12T06:19:07.223Z,91.00
2023-03-12T06:20:07.164Z,95.00
2023-03-12T06:21:07.222Z,97.00
2023-03-12T06:22:07.181Z,96.00
2023-03-12T06:23:07.919Z,88.00
2023-03-12T06:24:07.142Z,86.00
2023-03-12T06:25:07.153Z,93.00
2023-03-12T06:26:07.116Z,104.00
2023-03-12T06:27:07.179Z,124.00
2023-03-12T06:28:07.116Z,143.00
2023-03-12T06:29:07.133Z,136.00
2023-03-12T06:30:07.161Z,123.00
2023-03-12T06:31:07.200Z,129.00
2023-03-12T06:32:07.099Z,136.00
2023-03-12T06:33:07.089Z,139.00
2023-03-12T06:34:07.065Z,147.00
2023-03-12T06:35:07.055Z,160.00
2023-03-12T06:36:07.034Z,160.00
2023-03-12T06:37:07.014Z,149.00
2023-03-12T06:38:07.016Z,149.00
2023-03-12T06:39:07.000Z,165.00
2023-03-12T06:40:06.994Z,204.00
2023-03-12T06:41:07.001Z,221.00
2023-03-12T06:42:06.963Z,218.00
2023-03-12T06:43:06.998Z,203.00
2023-03-12T06:44:06.948Z,198.00
2023-03-12T06:45:06.954Z,201.00
2023-03-12T06:46:07.010Z,219.00
2023-03-12T06:47:06.926Z,239.00
2023-03-12T06:48:06.931Z,234.00
2023-03-12T06:49:06.910Z,231.00
2023-03-12T06:50:06.884Z,242.00
2023-03-12T06:51:06.924Z,253.00
2023-03-12T06:52:06.884Z,269.00
2023-03-12T06:53:06.860Z,267.00
2023-03-12T06:54:06.891Z,242.00
2023-03-12T06:55:06.899Z,217.00
2023-03-12T06:56:06.855Z,221.00
2023-03-12T06:57:06.831Z,231.00
2023-03-12T06:58:06.818Z,245.00
2023-03-12T06:59:06.802Z,245.00
2023-03-12T07:00:06.846Z,244.00
2023-03-12T07:01:06.795Z,230.00
2023-03-12T07:02:06.824Z,212.00
2023-03-12T07:03:06.780Z,233.00
2023-03-12T07:04:06.754Z,306.00
2023-03-12T07:05:06.796Z,423.00
2023-03-12T07:06:06.823Z,525.00
2023-03-12T07:07:06.773Z,539.00
2023-03-12T07:08:06.723Z,457.00
2023-03-12T07:09:06.692Z,362.00
2023-03-12T07:10:06.700Z,299.00
2023-03-12T07:11:06.728Z,302.00
2023-03-12T07:12:06.700Z,304.00
2023-03-12T07:13:06.726Z,323.00
2023-03-12T07:14:06.716Z,355.00
2023-03-12T07:15:06.776Z,397.00
2023-03-12T07:16:06.687Z,373.00
2023-03-12T07:17:06.631Z,380.00
2023-03-12T07:18:06.657Z,433.00
2023-03-12T07:19:06.650Z,527.00
2023-03-12T07:20:06.699Z,576.00
2023-03-12T07:21:06.650Z,537.00
2023-03-12T07:22:06.570Z,477.00
2023-03-12T07:23:06.578Z,449.00
2023-03-12T07:24:06.569Z,460.00
2023-03-12T07:25:06.550Z,448.00
2023-03-12T07:26:06.548Z,420.00
2023-03-12T07:27:06.520Z,422.00
2023-03-12T07:28:06.556Z,442.00
2023-03-12T07:29:06.526Z,467.00
2023-03-12T07:30:06.539Z,476.00
2023-03-12T07:31:06.576Z,485.00
2023-03-12T07:32:06.479Z,509.00
2023-03-12T07:33:06.653Z,524.00
2023-03-12T07:34:06.824Z,514.00
2023-03-12T07:35:06.457Z,515.00
2023-03-12T07:36:06.567Z,516.00
2023-03-12T07:37:06.439Z,512.00
2023-03-12T07:38:06.533Z,554.00
2023-03-12T07:39:06.439Z,644.00
2023-03-12T07:40:06.470Z,694.00
2023-03-12T07:41:06.449Z,688.00
2023-03-12T07:42:06.452Z,616.00
2023-03-12T07:43:06.388Z,517.00
2023-03-12T07:44:06.470Z,457.00
2023-03-12T07:45:06.374Z,433.00
2023-03-12T07:46:06.335Z,405.00
2023-03-12T07:47:20.910Z,386.00
2023-03-12T07:48:06.361Z,352.00
2023-03-12T07:49:06.318Z,337.00
2023-03-12T07:50:06.374Z,329.00
2023-03-12T07:51:06.307Z,346.00
2023-03-12T07:52:06.337Z,384.00
2023-03-12T07:53:06.250Z,394.00
2023-03-12T07:54:06.251Z,400.00
2023-03-12T07:55:06.332Z,455.00
2023-03-12T07:56:06.397Z,487.00
2023-03-12T07:57:06.351Z,494.00
2023-03-12T07:58:06.554Z,471.00
2023-03-12T07:59:06.255Z,453.00
2023-03-12T08:00:06.296Z,407.00
2023-03-12T08:01:06.216Z,348.00
2023-03-12T08:02:06.274Z,322.00
2023-03-12T08:03:06.307Z,307.00
2023-03-12T08:04:06.327Z,292.00
2023-03-12T08:05:06.229Z,285.00
2023-03-12T08:06:06.274Z,266.00
2023-03-12T08:07:09.085Z,271.00
2023-03-12T08:08:06.124Z,289.00
2023-03-12T08:09:06.697Z,372.00
2023-03-12T08:10:06.228Z,470.00
2023-03-12T08:11:06.140Z,549.00
2023-03-12T08:12:06.145Z,687.00
2023-03-12T08:13:06.140Z,695.00
2023-03-12T08:14:06.194Z,621.00
2023-03-12T08:15:06.078Z,566.00
2023-03-12T08:16:08.878Z,480.00
2023-03-12T08:17:06.030Z,701.00
2023-03-12T08:18:06.025Z,859.00
2023-03-12T08:19:06.019Z,821.00
2023-03-12T08:20:06.024Z,694.00
2023-03-12T08:21:05.983Z,635.00
2023-03-12T08:22:06.354Z,628.00
2023-03-12T08:23:05.986Z,600.00
2023-03-12T08:24:05.989Z,619.00
2023-03-12T08:25:05.979Z,566.00
2023-03-12T08:26:05.938Z,495.00
2023-03-12T08:27:05.960Z,414.00
2023-03-12T08:28:05.961Z,394.00
2023-03-12T08:29:05.910Z,474.00
2023-03-12T08:30:05.894Z,640.00
2023-03-12T08:31:05.909Z,649.00
2023-03-12T08:32:05.991Z,613.00
2023-03-12T08:33:06.436Z,539.00
2023-03-12T08:34:05.857Z,541.00
2023-03-12T08:35:05.891Z,556.00
2023-03-12T08:36:05.948Z,635.00
2023-03-12T08:37:05.824Z,854.00
2023-03-12T08:38:05.847Z,782.00
2023-03-12T08:39:05.832Z,651.00
2023-03-12T08:40:05.809Z,569.00
2023-03-12T08:41:05.803Z,531.00
2023-03-12T08:42:05.781Z,527.00
2023-03-12T08:43:05.860Z,673.00
2023-03-12T08:44:05.778Z,612.00
2023-03-12T08:45:05.766Z,636.00
2023-03-12T08:46:05.792Z,894.00
2023-03-12T08:47:05.735Z,850.00
2023-03-12T08:48:05.731Z,837.00
2023-03-12T08:49:05.715Z,727.00
2023-03-12T08:50:05.725Z,602.00
2023-03-12T08:51:05.704Z,526.00
2023-03-12T08:52:05.717Z,621.00
2023-03-12T08:53:05.652Z,564.00
2023-03-12T08:54:05.674Z,431.00
2023-03-12T08:55:05.708Z,436.00
2023-03-12T08:56:05.645Z,891.00
2023-03-12T08:57:05.620Z,1098.00
2023-03-12T08:58:05.623Z,1167.00
2023-03-12T08:59:05.617Z,1050.00
2023-03-12T09:00:05.617Z,945.00
2023-03-12T09:01:05.592Z,1114.00
2023-03-12T09:02:05.577Z,865.00
2023-03-12T09:03:05.646Z,726.00
2023-03-12T09:04:05.692Z,754.00
2023-03-12T09:05:05.603Z,699.00
2023-03-12T09:06:05.548Z,815.00
2023-03-12T09:07:05.531Z,1023.00
2023-03-12T09:08:05.547Z,871.00
2023-03-12T09:09:05.562Z,861.00
2023-03-12T09:10:05.618Z,706.00
2023-03-12T09:11:05.487Z,696.00
2023-03-12T09:12:05.484Z,682.00
2023-03-12T09:13:05.463Z,616.00
2023-03-12T09:15:05.531Z,620.00
2023-03-12T09:16:05.478Z,807.00
2023-03-12T09:17:05.447Z,1035.00
2023-03-12T09:18:05.491Z,1183.00
2023-03-12T09:19:05.411Z,1198.00
2023-03-12T09:20:05.499Z,1149.00
2023-03-12T09:21:05.404Z,949.00
2023-03-12T09:22:05.388Z,1155.00
2023-03-12T09:23:07.659Z,1374.00
2023-03-12T09:24:05.369Z,1389.00
2023-03-12T09:25:05.653Z,971.00
2023-03-12T09:26:05.437Z,652.00
2023-03-12T09:27:05.360Z,1169.00
2023-03-12T09:28:05.338Z,1360.00
2023-03-12T09:29:05.318Z,1457.00
2023-03-12T09:30:05.304Z,1391.00
2023-03-12T09:31:05.409Z,1839.00
2023-03-12T09:32:06.040Z,1468.00
2023-03-12T09:33:05.264Z,1170.00
2023-03-12T09:34:05.278Z,1326.00
2023-03-12T09:35:05.257Z,1324.00
2023-03-12T09:36:05.333Z,1000.00
2023-03-12T09:37:05.242Z,899.00
2023-03-12T09:38:05.220Z,937.00
2023-03-12T09:39:05.238Z,1083.00
2023-03-12T09:40:05.191Z,1187.00
2023-03-12T09:41:05.214Z,1253.00
2023-03-12T09:42:05.181Z,1244.00
2023-03-12T09:43:05.208Z,1362.00
2023-03-12T09:44:05.194Z,1226.00
2023-03-12T09:45:05.144Z,1039.00
2023-03-12T09:46:05.156Z,1146.00
2023-03-12T09:47:05.131Z,1355.00
2023-03-12T09:48:05.132Z,1468.00
2023-03-12T09:49:05.135Z,1383.00
2023-03-12T09:50:05.137Z,1111.00
2023-03-12T09:51:05.096Z,1026.00
2023-03-12T09:52:05.100Z,1254.00
2023-03-12T09:53:05.065Z,1409.00
2023-03-12T09:54:05.061Z,1229.00
2023-03-12T09:55:05.081Z,1317.00
2023-03-12T09:56:05.100Z,1367.00
2023-03-12T09:57:05.035Z,1234.00
2023-03-12T09:58:05.049Z,1240.00
2023-03-12T09:59:05.025Z,1368.00
2023-03-12T10:00:05.046Z,1418.00
2023-03-12T10:01:05.039Z,1456.00
2023-03-12T10:02:05.014Z,1298.00
2023-03-12T10:03:05.062Z,1171.00
2023-03-12T10:04:05.011Z,1144.00
2023-03-12T10:05:05.103Z,1049.00
2023-03-12T10:06:04.987Z,1062.00
2023-03-12T10:07:04.969Z,1019.00
2023-03-12T10:08:22.847Z,1064.00
2023-03-12T10:09:06.016Z,1161.00
2023-03-12T10:10:04.930Z,1242.00
